Tuesday, November 21, 2017, 10:38 AM EST
Back to Local

KHWV, Shirley Brookhaven Airport

Location: Shirley, NY, United States Lat: 40.817
Local Time: 10:38 AM EST (15:38 GMT) Lon: -72.867
Time Zone: US/Eastern Elev: 82 ft

Show me the last for .
Show Coded

Time T Td Feel RH Dir Speed Gust Alt SLP Vis Weather Sky Remarks
2017-11-21 09:56 55 38 - 52 200° 15 25 30.16 30.16 10 CLR None
2017-11-21 08:56 53 37 - 54 220° 12 - 30.17 30.16 10 CLR None
2017-11-21 07:56 49 37 46 63 220° 7 - 30.17 30.17 10 CLR None
2017-11-21 06:56 44 35 43 70 220° 3 - 30.16 30.16 10 CLR 6-hr Min Temp (7am): 39.0°F
6-hr Max Temp (7am): 45.0°F
2017-11-21 05:56 44 34 41 67 230° 6 - 30.15 30.15 10 CLR None
2017-11-21 04:56 44 33 41 65 230° 6 - 30.14 30.14 10 CLR None
2017-11-21 03:56 44 33 40 65 220° 7 - 30.14 30.14 10 CLR None
2017-11-21 02:56 42 32 38 67 210° 6 - 30.15 30.15 10 CLR None
2017-11-21 01:56 40 30 38 67 200° 3 - 30.15 30.14 10 CLR None
2017-11-21 00:56 41 29 38 61 230° 5 - 30.14 30.14 10 CLR 6-hr Min Temp (1am): 39.9°F
6-hr Max Temp (1am): 43.0°F
2017-11-20 23:56 43 27 41 52 Variable 3 - 30.14 30.14 10 CLR 24-hr Min Temp (12am): 36.0°F
24-hr Max Temp (12am): 46.9°F
2017-11-20 22:56 40 26 38 57 200° 3 - 30.14 30.14 10 CLR None
2017-11-20 21:56 41 27 38 57 250° 5 - 30.13 30.12 10 CLR None
2017-11-20 20:56 42 27 37 54 260° 8 - 30.12 30.12 10 CLR None
2017-11-20 19:56 43 27 39 52 230° 7 - 30.12 30.11 10 CLR None
2017-11-20 18:56 43 26 39 50 250° 7 - 30.11 30.11 10 FEW060 6-hr Min Temp (7pm): 41.0°F
6-hr Max Temp (7pm): 46.9°F
2017-11-20 17:56 42 25 38 50 220° 7 - 30.09 30.09 10 SCT065 None
2017-11-20 16:56 42 25 38 50 250° 7 - 30.07 30.07 10 CLR None
2017-11-20 15:56 45 23 37 41 270° 10 20 30.05 30.05 10 CLR None
2017-11-20 14:56 46 22 39 38 290° 16 - 30.03 30.03 10 CLR None
2017-11-20 13:56 46 24 38 41 280° 13 21 30.01 30.01 10 SCT060 None
2017-11-20 12:56 44 24 34 44 280° 15 30 30.01 30.01 10 SCT055 Peak wind: 32 mph (28 kts) from 270° at 35 min
6-hr Min Temp (1pm): 36.0°F
6-hr Max Temp (1pm): 44.1°F
2017-11-20 11:56 41 25 30 52 300° 14 29 30.02 30.02 10 BKN047 OVC060 Peak wind: 32 mph (28 kts) from 310° at 07 min
2017-11-20 10:56 42 26 33 52 280° 16 23 30.02 30.02 10 FEW040 SCT049 BKN060 Peak wind: 29 mph (26 kts) from 300° at 59 min

Support USWX by starting your Amazon purchase here.